Bleecker, New York
Current Conditions -  °F | °C
As of 4:35 PM on Friday 28 Nov 2014 (Local Time) from KNY0 Reporting Station
Overcast Overcast  
Wind Chill:   Ceiling: 4800
Heat Index: 22°   Visibility: 10mi
Dew Point: 15°   Wind: 14mph
Humidity: 75%   Direction: 270°W
Pressure: 30.14"   Gusts: 23mph
Location:  43.1204°N, 74.3629°W
Report Text: KNY0 282135Z AUTO 27012G20KT 10SM SCT022 SCT037 OVC048 M05/M09 A3014 RMK AO2 T10551093
Loading
Personal Weather Stations






























Interactive Weather Map New forecast layout! Learn more

10-Day Weather Forecast

Advertisements
Track Severe Weather on mobile